Portada
METAR-TAF:

METAR-TAF

Aeroports :

Saragossa, Espanya

latitud: 41-40N, longitud: 001-01W, altitud: 263 m

Observació

L'informe es va fer fa 39 minuts, a les 20:00 UTC
Vent 10 kt del Oest/Nord-Oest
Temperatura 13°C
Humitat 94%
Pressió 1011 hPa
Visibilitat 10 km o més
Núvols disperses a una alçada de 6000 ft

METAR: LEZG 132000Z 30010KT 9999 SCT060 13/12 Q1011

Hora: 21:39 (20:39 UTC)

Pronòstic

L'informe es va fer fa 3 hores i 39 minuts, a les 17:00 UTC
Pronòstic vàlid del 13 a les 18 UTC al 14 a les 18 UTC
Vent 7 kt del Oest
Visibilitat 10 km o més
Cel ennuvolat a una alçada de 5000 ft
Temporalment
l' 13 a les 19 UTC al 13 a les 23 UTC
Vent 10 kt del Oest amb ràfegues de 20 kt
Evolucionant progressivament
l' 14 a les 09 UTC al 14 a les 11 UTC
Vent 3 kt amb direcció variable

TAF: LEZG 131700Z 1318/1418 26007KT 9999 BKN050 TX18/1413Z TN11/1406Z TEMPO 1319/1323 26010G20KT BECMG 1409/1411 VRB03KT

Observacions i pronòstics meteorològics de més de 4000 aeroports (METAR i TAF).

Les estacions disponibles són els punts grocs i vermells al mapa.

Posi el ratolí al punt desitjat per veure el nom de l'estació.

Feu clic per veure les observacions i els pronòstics meteorològics.

Per canviar el mapa: feu clic els botons verds amb una creu de color negre per apropar; al botó verd amb un guió per allunyar la imatge; o en les fletxes verdes per a mapes adjacents.


METAR-TAF: